Hammet, Louisiana
Current Conditions -  °F | °C
As of 12:55 PM on Thursday 23 Oct 2014 (Local Time) from KHEZ Reporting Station
Clear Clear  
Wind Chill: 66°   Ceiling: Unl
Heat Index: 66°   Visibility: 10mi
Dew Point: 46°   Wind: 5mph
Humidity: 49%   Direction: 30°NNE
Pressure: 30.14"   Gusts: NA
Location:  31.5712°N, 91.5148°W
Report Text: KHEZ 231755Z AUTO 03004KT 10SM CLR 19/08 A3014 RMK AO1 10190 20060 57010
Loading
Personal Weather Stations






























Interactive Weather Map
Tropical Storm Tracking
New forecast layout! Learn more

10-Day Weather Forecast

Advertisements
Track Severe Weather on mobile